sensor_id;sensor_type;location;lat;lon;timestamp;temperature;humidity
51793;DHT22;37850;53.178;6.376;2024-01-25T00:01:13;7.60;99.90
51793;DHT22;37850;53.178;6.376;2024-01-25T00:03:38;7.60;99.90
51793;DHT22;37850;53.178;6.376;2024-01-25T00:06:05;7.60;99.90
51793;DHT22;37850;53.178;6.376;2024-01-25T00:08:31;7.60;99.90
51793;DHT22;37850;53.178;6.376;2024-01-25T00:10:57;7.50;99.90
51793;DHT22;37850;53.178;6.376;2024-01-25T00:13:24;7.50;99.90
51793;DHT22;37850;53.178;6.376;2024-01-25T00:15:49;7.50;99.90
51793;DHT22;37850;53.178;6.376;2024-01-25T00:18:15;8.10;99.90
51793;DHT22;37850;53.178;6.376;2024-01-25T00:20:41;7.40;99.90
51793;DHT22;37850;53.178;6.376;2024-01-25T00:23:07;7.40;99.90
51793;DHT22;37850;53.178;6.376;2024-01-25T00:25:33;7.40;99.90
51793;DHT22;37850;53.178;6.376;2024-01-25T00:27:59;7.30;99.90
51793;DHT22;37850;53.178;6.376;2024-01-25T00:30:24;7.30;99.90
51793;DHT22;37850;53.178;6.376;2024-01-25T00:32:51;7.60;99.90
51793;DHT22;37850;53.178;6.376;2024-01-25T00:35:17;7.20;99.90
51793;DHT22;37850;53.178;6.376;2024-01-25T00:37:43;7.30;99.90
51793;DHT22;37850;53.178;6.376;2024-01-25T00:40:09;7.20;99.90
51793;DHT22;37850;53.178;6.376;2024-01-25T00:42:44;7.20;99.90
51793;DHT22;37850;53.178;6.376;2024-01-25T00:45:11;7.20;99.90
51793;DHT22;37850;53.178;6.376;2024-01-25T00:47:37;7.20;99.90
51793;DHT22;37850;53.178;6.376;2024-01-25T00:50:04;7.10;99.90
51793;DHT22;37850;53.178;6.376;2024-01-25T00:52:30;7.10;99.90
51793;DHT22;37850;53.178;6.376;2024-01-25T00:54:56;6.80;99.90
51793;DHT22;37850;53.178;6.376;2024-01-25T00:57:22;7.10;99.90
51793;DHT22;37850;53.178;6.376;2024-01-25T00:59:48;7.10;99.90
51793;DHT22;37850;53.178;6.376;2024-01-25T01:02:14;7.00;99.90
51793;DHT22;37850;53.178;6.376;2024-01-25T01:04:40;7.00;99.90
51793;DHT22;37850;53.178;6.376;2024-01-25T01:07:07;7.00;99.90
51793;DHT22;37850;53.178;6.376;2024-01-25T01:09:32;7.00;99.90
51793;DHT22;37850;53.178;6.376;2024-01-25T01:11:59;7.00;99.90
51793;DHT22;37850;53.178;6.376;2024-01-25T01:14:24;7.60;99.90
51793;DHT22;37850;53.178;6.376;2024-01-25T01:16:50;7.00;99.90
51793;DHT22;37850;53.178;6.376;2024-01-25T01:19:19;7.40;99.90
51793;DHT22;37850;53.178;6.376;2024-01-25T01:21:45;7.00;99.90
51793;DHT22;37850;53.178;6.376;2024-01-25T01:24:11;6.90;99.90
51793;DHT22;37850;53.178;6.376;2024-01-25T01:26:37;6.90;99.90
51793;DHT22;37850;53.178;6.376;2024-01-25T01:29:03;6.90;99.90
51793;DHT22;37850;53.178;6.376;2024-01-25T01:31:30;7.10;99.90
51793;DHT22;37850;53.178;6.376;2024-01-25T01:33:55;6.90;99.90
51793;DHT22;37850;53.178;6.376;2024-01-25T01:36:23;6.90;99.90
51793;DHT22;37850;53.178;6.376;2024-01-25T01:38:49;6.90;99.90
51793;DHT22;37850;53.178;6.376;2024-01-25T01:41:15;6.90;99.90
51793;DHT22;37850;53.178;6.376;2024-01-25T01:43:41;6.90;99.90
51793;DHT22;37850;53.178;6.376;2024-01-25T01:46:11;6.90;99.90
51793;DHT22;37850;53.178;6.376;2024-01-25T01:48:39;6.80;99.90
51793;DHT22;37850;53.178;6.376;2024-01-25T01:51:05;6.90;99.90
51793;DHT22;37850;53.178;6.376;2024-01-25T01:53:32;6.80;99.90
51793;DHT22;37850;53.178;6.376;2024-01-25T01:55:59;6.90;99.90
51793;DHT22;37850;53.178;6.376;2024-01-25T01:58:25;6.80;99.90
51793;DHT22;37850;53.178;6.376;2024-01-25T02:00:53;7.00;99.90
51793;DHT22;37850;53.178;6.376;2024-01-25T02:03:21;6.80;99.90
51793;DHT22;37850;53.178;6.376;2024-01-25T02:05:47;7.00;99.90
51793;DHT22;37850;53.178;6.376;2024-01-25T02:08:13;6.70;99.90
51793;DHT22;37850;53.178;6.376;2024-01-25T02:10:38;7.40;99.90
51793;DHT22;37850;53.178;6.376;2024-01-25T02:13:04;6.80;99.90
51793;DHT22;37850;53.178;6.376;2024-01-25T02:15:30;6.80;99.90
51793;DHT22;37850;53.178;6.376;2024-01-25T02:17:56;6.70;99.90
51793;DHT22;37850;53.178;6.376;2024-01-25T02:20:22;6.70;99.90
51793;DHT22;37850;53.178;6.376;2024-01-25T02:22:47;6.70;99.90
51793;DHT22;37850;53.178;6.376;2024-01-25T02:25:13;6.70;99.90
51793;DHT22;37850;53.178;6.376;2024-01-25T02:27:39;6.70;99.90
51793;DHT22;37850;53.178;6.376;2024-01-25T02:30:08;6.70;99.90
51793;DHT22;37850;53.178;6.376;2024-01-25T02:32:34;6.70;99.90
51793;DHT22;37850;53.178;6.376;2024-01-25T02:35:00;6.60;99.90
51793;DHT22;37850;53.178;6.376;2024-01-25T02:37:26;6.70;99.90
51793;DHT22;37850;53.178;6.376;2024-01-25T02:39:52;6.60;99.90
51793;DHT22;37850;53.178;6.376;2024-01-25T02:42:18;6.60;99.90
51793;DHT22;37850;53.178;6.376;2024-01-25T02:44:44;6.60;99.90
51793;DHT22;37850;53.178;6.376;2024-01-25T02:47:10;6.60;99.90
51793;DHT22;37850;53.178;6.376;2024-01-25T02:49:36;6.70;99.90
51793;DHT22;37850;53.178;6.376;2024-01-25T02:52:02;6.60;99.90
51793;DHT22;37850;53.178;6.376;2024-01-25T02:54:27;6.60;99.90
51793;DHT22;37850;53.178;6.376;2024-01-25T02:56:53;6.50;99.90
51793;DHT22;37850;53.178;6.376;2024-01-25T02:59:20;6.60;99.90
51793;DHT22;37850;53.178;6.376;2024-01-25T03:01:46;6.60;99.90
51793;DHT22;37850;53.178;6.376;2024-01-25T03:04:12;6.60;99.90
51793;DHT22;37850;53.178;6.376;2024-01-25T03:06:38;6.50;99.90
51793;DHT22;37850;53.178;6.376;2024-01-25T03:09:04;6.50;99.90
51793;DHT22;37850;53.178;6.376;2024-01-25T03:11:33;6.50;99.90
51793;DHT22;37850;53.178;6.376;2024-01-25T03:13:59;6.50;99.90
51793;DHT22;37850;53.178;6.376;2024-01-25T03:16:25;6.50;99.90
51793;DHT22;37850;53.178;6.376;2024-01-25T03:18:51;6.50;99.90
51793;DHT22;37850;53.178;6.376;2024-01-25T03:21:16;6.50;99.90
51793;DHT22;37850;53.178;6.376;2024-01-25T03:23:42;6.50;99.90
51793;DHT22;37850;53.178;6.376;2024-01-25T03:26:08;6.40;99.90
51793;DHT22;37850;53.178;6.376;2024-01-25T03:28:36;6.50;99.90
51793;DHT22;37850;53.178;6.376;2024-01-25T03:31:04;6.90;99.90
51793;DHT22;37850;53.178;6.376;2024-01-25T03:33:29;6.40;99.90
51793;DHT22;37850;53.178;6.376;2024-01-25T03:36:04;6.40;99.90
51793;DHT22;37850;53.178;6.376;2024-01-25T03:38:30;6.40;99.90
51793;DHT22;37850;53.178;6.376;2024-01-25T03:40:56;6.40;99.90
51793;DHT22;37850;53.178;6.376;2024-01-25T03:43:23;6.30;99.90
51793;DHT22;37850;53.178;6.376;2024-01-25T03:45:49;6.60;99.90
51793;DHT22;37850;53.178;6.376;2024-01-25T03:48:15;6.50;99.90
51793;DHT22;37850;53.178;6.376;2024-01-25T03:50:41;6.40;99.90
51793;DHT22;37850;53.178;6.376;2024-01-25T03:53:07;6.30;99.90
51793;DHT22;37850;53.178;6.376;2024-01-25T03:55:33;6.30;99.90
51793;DHT22;37850;53.178;6.376;2024-01-25T03:57:58;6.30;99.90
51793;DHT22;37850;53.178;6.376;2024-01-25T04:00:24;6.30;99.90
51793;DHT22;37850;53.178;6.376;2024-01-25T04:02:50;6.30;99.90
51793;DHT22;37850;53.178;6.376;2024-01-25T04:05:16;6.20;99.90
51793;DHT22;37850;53.178;6.376;2024-01-25T04:07:42;6.20;99.90
51793;DHT22;37850;53.178;6.376;2024-01-25T04:10:08;6.20;99.90
51793;DHT22;37850;53.178;6.376;2024-01-25T04:12:34;6.20;99.90
51793;DHT22;37850;53.178;6.376;2024-01-25T04:15:00;6.20;99.90
51793;DHT22;37850;53.178;6.376;2024-01-25T04:17:25;6.20;99.90
51793;DHT22;37850;53.178;6.376;2024-01-25T04:19:51;6.20;99.90
51793;DHT22;37850;53.178;6.376;2024-01-25T04:22:17;6.10;99.90
51793;DHT22;37850;53.178;6.376;2024-01-25T04:24:42;6.10;99.90
51793;DHT22;37850;53.178;6.376;2024-01-25T04:27:10;6.10;99.90
51793;DHT22;37850;53.178;6.376;2024-01-25T04:29:45;6.10;99.90
51793;DHT22;37850;53.178;6.376;2024-01-25T04:32:12;6.10;99.90
51793;DHT22;37850;53.178;6.376;2024-01-25T04:34:38;6.10;99.90
51793;DHT22;37850;53.178;6.376;2024-01-25T04:37:03;6.10;99.90
51793;DHT22;37850;53.178;6.376;2024-01-25T04:39:29;6.20;99.90
51793;DHT22;37850;53.178;6.376;2024-01-25T04:41:55;6.20;99.90
51793;DHT22;37850;53.178;6.376;2024-01-25T04:44:21;6.00;99.90
51793;DHT22;37850;53.178;6.376;2024-01-25T04:46:46;6.00;99.90
51793;DHT22;37850;53.178;6.376;2024-01-25T04:49:12;6.00;99.90
51793;DHT22;37850;53.178;6.376;2024-01-25T04:51:38;5.90;99.90
51793;DHT22;37850;53.178;6.376;2024-01-25T04:54:03;5.90;99.90
51793;DHT22;37850;53.178;6.376;2024-01-25T04:56:29;5.90;99.90
51793;DHT22;37850;53.178;6.376;2024-01-25T04:58:55;5.90;99.90
51793;DHT22;37850;53.178;6.376;2024-01-25T05:01:21;5.80;99.90
51793;DHT22;37850;53.178;6.376;2024-01-25T05:03:47;5.80;99.90
51793;DHT22;37850;53.178;6.376;2024-01-25T05:06:12;5.80;99.90
51793;DHT22;37850;53.178;6.376;2024-01-25T05:08:38;5.80;99.90
51793;DHT22;37850;53.178;6.376;2024-01-25T05:11:04;5.80;99.90
51793;DHT22;37850;53.178;6.376;2024-01-25T05:13:30;5.80;99.90
51793;DHT22;37850;53.178;6.376;2024-01-25T05:15:56;5.80;99.90
51793;DHT22;37850;53.178;6.376;2024-01-25T05:18:21;5.80;99.90
51793;DHT22;37850;53.178;6.376;2024-01-25T05:20:47;5.70;99.90
51793;DHT22;37850;53.178;6.376;2024-01-25T05:23:12;5.70;99.90
51793;DHT22;37850;53.178;6.376;2024-01-25T05:25:38;6.00;99.90
51793;DHT22;37850;53.178;6.376;2024-01-25T05:28:04;5.70;99.90
51793;DHT22;37850;53.178;6.376;2024-01-25T05:30:30;5.70;99.90
51793;DHT22;37850;53.178;6.376;2024-01-25T05:32:56;5.70;99.90
51793;DHT22;37850;53.178;6.376;2024-01-25T05:35:22;5.60;99.90
51793;DHT22;37850;53.178;6.376;2024-01-25T05:37:49;5.90;99.90
51793;DHT22;37850;53.178;6.376;2024-01-25T05:40:15;5.60;99.90
51793;DHT22;37850;53.178;6.376;2024-01-25T05:42:41;5.60;99.90
51793;DHT22;37850;53.178;6.376;2024-01-25T05:45:07;5.60;99.90
51793;DHT22;37850;53.178;6.376;2024-01-25T05:47:34;5.60;99.90
51793;DHT22;37850;53.178;6.376;2024-01-25T05:50:00;5.50;99.90
51793;DHT22;37850;53.178;6.376;2024-01-25T05:52:26;5.50;99.90
51793;DHT22;37850;53.178;6.376;2024-01-25T05:54:51;5.50;99.90
51793;DHT22;37850;53.178;6.376;2024-01-25T05:57:18;5.60;99.90
51793;DHT22;37850;53.178;6.376;2024-01-25T05:59:44;5.50;99.90
51793;DHT22;37850;53.178;6.376;2024-01-25T06:02:10;5.50;99.90
51793;DHT22;37850;53.178;6.376;2024-01-25T06:04:36;5.40;99.90
51793;DHT22;37850;53.178;6.376;2024-01-25T06:07:03;5.40;99.90
51793;DHT22;37850;53.178;6.376;2024-01-25T06:09:28;5.40;99.90
51793;DHT22;37850;53.178;6.376;2024-01-25T06:11:54;5.30;99.90
51793;DHT22;37850;53.178;6.376;2024-01-25T06:14:20;5.40;99.90
51793;DHT22;37850;53.178;6.376;2024-01-25T06:16:46;5.30;99.90
51793;DHT22;37850;53.178;6.376;2024-01-25T06:19:12;5.30;99.90
51793;DHT22;37850;53.178;6.376;2024-01-25T06:21:37;5.30;99.90
51793;DHT22;37850;53.178;6.376;2024-01-25T06:24:04;5.30;99.90
51793;DHT22;37850;53.178;6.376;2024-01-25T06:26:30;5.20;99.90
51793;DHT22;37850;53.178;6.376;2024-01-25T06:28:56;5.70;99.90
51793;DHT22;37850;53.178;6.376;2024-01-25T06:31:23;5.20;99.90
51793;DHT22;37850;53.178;6.376;2024-01-25T06:33:49;5.20;99.90
51793;DHT22;37850;53.178;6.376;2024-01-25T06:36:16;5.20;99.90
51793;DHT22;37850;53.178;6.376;2024-01-25T06:38:42;5.10;99.90
51793;DHT22;37850;53.178;6.376;2024-01-25T06:41:11;5.10;99.90
51793;DHT22;37850;53.178;6.376;2024-01-25T06:43:36;5.10;99.90
51793;DHT22;37850;53.178;6.376;2024-01-25T06:46:02;5.10;99.90
51793;DHT22;37850;53.178;6.376;2024-01-25T06:48:28;5.70;99.90
51793;DHT22;37850;53.178;6.376;2024-01-25T06:50:54;5.00;99.90
51793;DHT22;37850;53.178;6.376;2024-01-25T06:53:21;5.00;99.90
51793;DHT22;37850;53.178;6.376;2024-01-25T06:55:47;5.00;99.90
51793;DHT22;37850;53.178;6.376;2024-01-25T06:58:12;4.90;99.90
51793;DHT22;37850;53.178;6.376;2024-01-25T07:00:38;5.60;99.90
51793;DHT22;37850;53.178;6.376;2024-01-25T07:03:05;4.90;99.90
51793;DHT22;37850;53.178;6.376;2024-01-25T07:05:30;4.90;99.90
51793;DHT22;37850;53.178;6.376;2024-01-25T07:07:59;4.90;99.90
51793;DHT22;37850;53.178;6.376;2024-01-25T07:10:25;4.80;99.90
51793;DHT22;37850;53.178;6.376;2024-01-25T07:12:51;4.80;99.90
51793;DHT22;37850;53.178;6.376;2024-01-25T07:15:18;4.70;99.90
51793;DHT22;37850;53.178;6.376;2024-01-25T07:17:44;4.70;99.90
51793;DHT22;37850;53.178;6.376;2024-01-25T07:20:10;4.70;99.90
51793;DHT22;37850;53.178;6.376;2024-01-25T07:22:35;4.70;99.90
51793;DHT22;37850;53.178;6.376;2024-01-25T07:25:01;4.70;99.90
51793;DHT22;37850;53.178;6.376;2024-01-25T07:27:27;4.60;99.90
51793;DHT22;37850;53.178;6.376;2024-01-25T07:29:53;4.60;99.90
51793;DHT22;37850;53.178;6.376;2024-01-25T07:32:19;4.60;99.90
51793;DHT22;37850;53.178;6.376;2024-01-25T07:34:48;4.50;99.90
51793;DHT22;37850;53.178;6.376;2024-01-25T07:37:14;4.50;99.90
51793;DHT22;37850;53.178;6.376;2024-01-25T07:39:40;4.50;99.90
51793;DHT22;37850;53.178;6.376;2024-01-25T07:42:06;4.50;99.90
51793;DHT22;37850;53.178;6.376;2024-01-25T07:44:32;4.50;99.90
51793;DHT22;37850;53.178;6.376;2024-01-25T07:46:57;4.90;99.90
51793;DHT22;37850;53.178;6.376;2024-01-25T07:49:23;4.40;99.90
51793;DHT22;37850;53.178;6.376;2024-01-25T07:51:49;4.40;99.90
51793;DHT22;37850;53.178;6.376;2024-01-25T07:54:14;4.40;99.90
51793;DHT22;37850;53.178;6.376;2024-01-25T07:56:40;5.00;99.90
51793;DHT22;37850;53.178;6.376;2024-01-25T07:59:06;4.40;99.90
51793;DHT22;37850;53.178;6.376;2024-01-25T08:01:32;4.40;99.90
51793;DHT22;37850;53.178;6.376;2024-01-25T08:03:58;4.50;99.90
51793;DHT22;37850;53.178;6.376;2024-01-25T08:06:25;4.40;99.90
51793;DHT22;37850;53.178;6.376;2024-01-25T08:08:52;4.40;99.90
51793;DHT22;37850;53.178;6.376;2024-01-25T08:11:18;4.80;99.90
51793;DHT22;37850;53.178;6.376;2024-01-25T08:13:46;4.40;99.90
51793;DHT22;37850;53.178;6.376;2024-01-25T08:16:13;4.40;99.90
51793;DHT22;37850;53.178;6.376;2024-01-25T08:18:39;4.40;99.90
51793;DHT22;37850;53.178;6.376;2024-01-25T08:21:05;4.50;99.90
51793;DHT22;37850;53.178;6.376;2024-01-25T08:23:31;4.40;99.90
51793;DHT22;37850;53.178;6.376;2024-01-25T08:25:57;4.80;99.90
51793;DHT22;37850;53.178;6.376;2024-01-25T08:28:23;4.50;99.90
51793;DHT22;37850;53.178;6.376;2024-01-25T08:30:48;4.50;99.90
51793;DHT22;37850;53.178;6.376;2024-01-25T08:33:15;4.50;99.90
51793;DHT22;37850;53.178;6.376;2024-01-25T08:35:41;4.50;99.90
51793;DHT22;37850;53.178;6.376;2024-01-25T08:38:07;4.50;99.90
51793;DHT22;37850;53.178;6.376;2024-01-25T08:40:33;4.50;99.90
51793;DHT22;37850;53.178;6.376;2024-01-25T08:42:59;4.50;99.90
51793;DHT22;37850;53.178;6.376;2024-01-25T08:45:25;4.50;99.90
51793;DHT22;37850;53.178;6.376;2024-01-25T08:47:51;4.60;99.90
51793;DHT22;37850;53.178;6.376;2024-01-25T08:50:18;5.30;99.90
51793;DHT22;37850;53.178;6.376;2024-01-25T08:52:44;4.60;99.90
51793;DHT22;37850;53.178;6.376;2024-01-25T08:55:09;4.60;99.90
51793;DHT22;37850;53.178;6.376;2024-01-25T08:57:36;4.60;99.90
51793;DHT22;37850;53.178;6.376;2024-01-25T09:00:02;4.70;99.90
51793;DHT22;37850;53.178;6.376;2024-01-25T09:02:33;4.70;99.90
51793;DHT22;37850;53.178;6.376;2024-01-25T09:04:59;4.70;99.90
51793;DHT22;37850;53.178;6.376;2024-01-25T09:07:25;4.70;99.90
51793;DHT22;37850;53.178;6.376;2024-01-25T09:09:51;4.70;99.90
51793;DHT22;37850;53.178;6.376;2024-01-25T09:12:17;4.80;99.90
51793;DHT22;37850;53.178;6.376;2024-01-25T09:14:42;4.80;99.90
51793;DHT22;37850;53.178;6.376;2024-01-25T09:17:09;4.80;99.90
51793;DHT22;37850;53.178;6.376;2024-01-25T09:19:35;4.90;99.90
51793;DHT22;37850;53.178;6.376;2024-01-25T09:22:02;4.90;99.90
51793;DHT22;37850;53.178;6.376;2024-01-25T09:24:30;4.90;99.90
51793;DHT22;37850;53.178;6.376;2024-01-25T09:26:56;5.00;99.90
51793;DHT22;37850;53.178;6.376;2024-01-25T09:29:24;5.00;99.90
51793;DHT22;37850;53.178;6.376;2024-01-25T09:31:50;5.00;99.90
51793;DHT22;37850;53.178;6.376;2024-01-25T09:34:16;5.10;99.90
51793;DHT22;37850;53.178;6.376;2024-01-25T09:36:42;5.10;99.90
51793;DHT22;37850;53.178;6.376;2024-01-25T09:39:08;5.20;99.90
51793;DHT22;37850;53.178;6.376;2024-01-25T09:41:33;5.10;99.90
51793;DHT22;37850;53.178;6.376;2024-01-25T09:43:59;5.70;99.90
51793;DHT22;37850;53.178;6.376;2024-01-25T09:46:26;5.20;99.90
51793;DHT22;37850;53.178;6.376;2024-01-25T09:48:52;5.20;99.90
51793;DHT22;37850;53.178;6.376;2024-01-25T09:51:18;5.30;99.90
51793;DHT22;37850;53.178;6.376;2024-01-25T09:53:45;5.30;99.90
51793;DHT22;37850;53.178;6.376;2024-01-25T09:56:15;5.30;99.90
51793;DHT22;37850;53.178;6.376;2024-01-25T09:58:43;5.30;99.90
51793;DHT22;37850;53.178;6.376;2024-01-25T10:01:14;5.40;99.90
51793;DHT22;37850;53.178;6.376;2024-01-25T10:03:45;5.40;99.90
51793;DHT22;37850;53.178;6.376;2024-01-25T10:06:12;5.80;99.90
51793;DHT22;37850;53.178;6.376;2024-01-25T10:08:38;5.50;99.90
51793;DHT22;37850;53.178;6.376;2024-01-25T10:11:05;5.60;99.90
51793;DHT22;37850;53.178;6.376;2024-01-25T10:13:31;5.50;99.90
51793;DHT22;37850;53.178;6.376;2024-01-25T10:15:57;5.50;99.90
51793;DHT22;37850;53.178;6.376;2024-01-25T10:18:27;5.60;99.90
51793;DHT22;37850;53.178;6.376;2024-01-25T10:20:53;5.60;99.90
51793;DHT22;37850;53.178;6.376;2024-01-25T10:23:20;5.50;99.90
51793;DHT22;37850;53.178;6.376;2024-01-25T10:25:46;5.60;99.90
51793;DHT22;37850;53.178;6.376;2024-01-25T10:28:12;5.60;99.90
51793;DHT22;37850;53.178;6.376;2024-01-25T10:30:38;5.60;99.90
51793;DHT22;37850;53.178;6.376;2024-01-25T10:33:04;5.50;99.90
51793;DHT22;37850;53.178;6.376;2024-01-25T10:35:31;5.60;99.90
51793;DHT22;37850;53.178;6.376;2024-01-25T10:37:57;5.60;99.90
51793;DHT22;37850;53.178;6.376;2024-01-25T10:40:23;5.60;99.90
51793;DHT22;37850;53.178;6.376;2024-01-25T10:42:49;6.10;99.90
51793;DHT22;37850;53.178;6.376;2024-01-25T10:45:15;5.70;99.90
51793;DHT22;37850;53.178;6.376;2024-01-25T10:47:41;6.10;99.90
51793;DHT22;37850;53.178;6.376;2024-01-25T10:50:13;5.80;99.90
51793;DHT22;37850;53.178;6.376;2024-01-25T10:52:40;5.90;99.90
51793;DHT22;37850;53.178;6.376;2024-01-25T10:55:07;6.00;99.90
51793;DHT22;37850;53.178;6.376;2024-01-25T10:57:39;6.20;99.90
51793;DHT22;37850;53.178;6.376;2024-01-25T11:00:10;6.00;99.90
51793;DHT22;37850;53.178;6.376;2024-01-25T11:02:36;6.10;99.90
51793;DHT22;37850;53.178;6.376;2024-01-25T11:05:10;6.10;99.90
51793;DHT22;37850;53.178;6.376;2024-01-25T11:10:17;6.20;99.90
51793;DHT22;37850;53.178;6.376;2024-01-25T11:12:58;6.20;99.90
51793;DHT22;37850;53.178;6.376;2024-01-25T11:15:35;6.20;99.90
51793;DHT22;37850;53.178;6.376;2024-01-25T11:18:07;6.20;99.90
51793;DHT22;37850;53.178;6.376;2024-01-25T11:20:34;6.30;99.90
51793;DHT22;37850;53.178;6.376;2024-01-25T11:23:05;6.50;99.90
51793;DHT22;37850;53.178;6.376;2024-01-25T11:25:37;6.30;99.90
51793;DHT22;37850;53.178;6.376;2024-01-25T11:28:04;6.60;99.90
51793;DHT22;37850;53.178;6.376;2024-01-25T11:30:34;6.40;99.90
51793;DHT22;37850;53.178;6.376;2024-01-25T11:33:00;6.40;99.90
51793;DHT22;37850;53.178;6.376;2024-01-25T11:35:26;6.40;99.90
51793;DHT22;37850;53.178;6.376;2024-01-25T11:37:52;6.50;99.90
51793;DHT22;37850;53.178;6.376;2024-01-25T11:40:18;6.50;99.90
51793;DHT22;37850;53.178;6.376;2024-01-25T11:42:47;6.50;99.90
51793;DHT22;37850;53.178;6.376;2024-01-25T11:45:14;6.50;99.90
51793;DHT22;37850;53.178;6.376;2024-01-25T11:47:41;6.50;99.90
51793;DHT22;37850;53.178;6.376;2024-01-25T11:50:09;6.60;99.90
51793;DHT22;37850;53.178;6.376;2024-01-25T11:52:35;6.60;99.90
51793;DHT22;37850;53.178;6.376;2024-01-25T11:55:05;6.80;99.90
51793;DHT22;37850;53.178;6.376;2024-01-25T11:57:37;6.70;99.90
51793;DHT22;37850;53.178;6.376;2024-01-25T12:00:08;6.80;99.90
51793;DHT22;37850;53.178;6.376;2024-01-25T12:02:38;6.80;99.90
51793;DHT22;37850;53.178;6.376;2024-01-25T12:05:04;6.90;99.90
51793;DHT22;37850;53.178;6.376;2024-01-25T12:07:31;6.90;99.90
51793;DHT22;37850;53.178;6.376;2024-01-25T12:10:02;6.90;99.90
51793;DHT22;37850;53.178;6.376;2024-01-25T12:12:29;6.90;99.90
51793;DHT22;37850;53.178;6.376;2024-01-25T12:15:02;6.90;99.90
51793;DHT22;37850;53.178;6.376;2024-01-25T12:17:33;7.00;99.90
51793;DHT22;37850;53.178;6.376;2024-01-25T12:20:00;7.00;99.90
51793;DHT22;37850;53.178;6.376;2024-01-25T12:22:29;7.00;99.90
51793;DHT22;37850;53.178;6.376;2024-01-25T12:24:57;7.10;99.90
51793;DHT22;37850;53.178;6.376;2024-01-25T12:27:25;7.10;99.90
51793;DHT22;37850;53.178;6.376;2024-01-25T12:29:52;7.10;99.90
51793;DHT22;37850;53.178;6.376;2024-01-25T12:32:21;7.20;99.90
51793;DHT22;37850;53.178;6.376;2024-01-25T12:34:57;7.20;99.90
51793;DHT22;37850;53.178;6.376;2024-01-25T12:37:23;7.80;99.90
51793;DHT22;37850;53.178;6.376;2024-01-25T12:39:51;7.30;99.90
51793;DHT22;37850;53.178;6.376;2024-01-25T12:42:17;7.30;99.90
51793;DHT22;37850;53.178;6.376;2024-01-25T12:44:43;7.60;99.90
51793;DHT22;37850;53.178;6.376;2024-01-25T12:47:09;7.40;99.90
51793;DHT22;37850;53.178;6.376;2024-01-25T12:49:35;7.40;99.90
51793;DHT22;37850;53.178;6.376;2024-01-25T12:52:01;7.40;99.90
51793;DHT22;37850;53.178;6.376;2024-01-25T12:54:27;7.40;99.90
51793;DHT22;37850;53.178;6.376;2024-01-25T12:56:54;7.40;99.90
51793;DHT22;37850;53.178;6.376;2024-01-25T12:59:23;7.40;99.90
51793;DHT22;37850;53.178;6.376;2024-01-25T13:01:49;7.40;99.90
51793;DHT22;37850;53.178;6.376;2024-01-25T13:04:14;7.40;99.90
51793;DHT22;37850;53.178;6.376;2024-01-25T13:06:40;7.40;99.90
51793;DHT22;37850;53.178;6.376;2024-01-25T13:09:06;7.40;99.90
51793;DHT22;37850;53.178;6.376;2024-01-25T13:11:32;7.90;99.90
51793;DHT22;37850;53.178;6.376;2024-01-25T13:13:57;7.60;99.90
51793;DHT22;37850;53.178;6.376;2024-01-25T13:16:23;7.40;99.90
51793;DHT22;37850;53.178;6.376;2024-01-25T13:18:49;7.50;99.90
51793;DHT22;37850;53.178;6.376;2024-01-25T13:21:15;7.40;99.90
51793;DHT22;37850;53.178;6.376;2024-01-25T13:23:41;7.90;99.90
51793;DHT22;37850;53.178;6.376;2024-01-25T13:26:06;7.50;99.90
51793;DHT22;37850;53.178;6.376;2024-01-25T13:28:32;7.50;99.90
51793;DHT22;37850;53.178;6.376;2024-01-25T13:30:58;7.40;99.90
51793;DHT22;37850;53.178;6.376;2024-01-25T13:33:25;7.40;99.90
51793;DHT22;37850;53.178;6.376;2024-01-25T13:35:51;7.50;99.90
51793;DHT22;37850;53.178;6.376;2024-01-25T13:38:16;7.50;99.90
51793;DHT22;37850;53.178;6.376;2024-01-25T13:40:42;7.50;99.90
51793;DHT22;37850;53.178;6.376;2024-01-25T13:43:08;7.50;99.90
51793;DHT22;37850;53.178;6.376;2024-01-25T13:45:34;7.50;99.90
51793;DHT22;37850;53.178;6.376;2024-01-25T13:48:00;7.50;99.90
51793;DHT22;37850;53.178;6.376;2024-01-25T13:50:25;7.50;99.90
51793;DHT22;37850;53.178;6.376;2024-01-25T13:52:51;7.50;99.90
51793;DHT22;37850;53.178;6.376;2024-01-25T13:55:17;7.50;99.90
51793;DHT22;37850;53.178;6.376;2024-01-25T13:57:43;7.50;99.90
51793;DHT22;37850;53.178;6.376;2024-01-25T14:00:09;7.50;99.90
51793;DHT22;37850;53.178;6.376;2024-01-25T14:02:35;7.50;99.90
51793;DHT22;37850;53.178;6.376;2024-01-25T14:05:01;7.50;99.90
51793;DHT22;37850;53.178;6.376;2024-01-25T14:07:27;7.50;99.90
51793;DHT22;37850;53.178;6.376;2024-01-25T14:09:53;7.50;99.90
51793;DHT22;37850;53.178;6.376;2024-01-25T14:12:19;7.50;99.90
51793;DHT22;37850;53.178;6.376;2024-01-25T14:14:44;7.50;99.90
51793;DHT22;37850;53.178;6.376;2024-01-25T14:17:10;7.50;99.90
51793;DHT22;37850;53.178;6.376;2024-01-25T14:19:36;7.50;99.90
51793;DHT22;37850;53.178;6.376;2024-01-25T14:22:02;7.60;99.90
51793;DHT22;37850;53.178;6.376;2024-01-25T14:24:27;7.50;99.90
51793;DHT22;37850;53.178;6.376;2024-01-25T14:26:53;7.60;99.90
51793;DHT22;37850;53.178;6.376;2024-01-25T14:29:18;7.50;99.90
51793;DHT22;37850;53.178;6.376;2024-01-25T14:31:44;7.50;99.90
51793;DHT22;37850;53.178;6.376;2024-01-25T14:34:10;7.50;99.90
51793;DHT22;37850;53.178;6.376;2024-01-25T14:36:36;7.60;99.90
51793;DHT22;37850;53.178;6.376;2024-01-25T14:39:02;7.60;99.90
51793;DHT22;37850;53.178;6.376;2024-01-25T14:41:29;7.50;99.90
51793;DHT22;37850;53.178;6.376;2024-01-25T14:43:55;7.50;99.90
51793;DHT22;37850;53.178;6.376;2024-01-25T14:46:21;7.50;99.90
51793;DHT22;37850;53.178;6.376;2024-01-25T14:48:46;7.50;99.90
51793;DHT22;37850;53.178;6.376;2024-01-25T14:51:12;7.50;99.90
51793;DHT22;37850;53.178;6.376;2024-01-25T14:53:38;7.70;99.90
51793;DHT22;37850;53.178;6.376;2024-01-25T14:56:04;7.90;99.90
51793;DHT22;37850;53.178;6.376;2024-01-25T14:58:30;7.50;99.90
51793;DHT22;37850;53.178;6.376;2024-01-25T15:00:56;7.50;99.90
51793;DHT22;37850;53.178;6.376;2024-01-25T15:03:22;7.50;99.90
51793;DHT22;37850;53.178;6.376;2024-01-25T15:05:48;7.40;99.90
51793;DHT22;37850;53.178;6.376;2024-01-25T15:08:14;7.50;99.90
51793;DHT22;37850;53.178;6.376;2024-01-25T15:10:40;7.50;99.90
51793;DHT22;37850;53.178;6.376;2024-01-25T15:13:05;7.40;99.90
51793;DHT22;37850;53.178;6.376;2024-01-25T15:15:31;7.40;99.90
51793;DHT22;37850;53.178;6.376;2024-01-25T15:17:57;7.40;99.90
51793;DHT22;37850;53.178;6.376;2024-01-25T15:20:23;7.40;99.90
51793;DHT22;37850;53.178;6.376;2024-01-25T15:22:50;7.40;99.90
51793;DHT22;37850;53.178;6.376;2024-01-25T15:25:17;7.40;99.90
51793;DHT22;37850;53.178;6.376;2024-01-25T15:27:43;7.40;99.90
51793;DHT22;37850;53.178;6.376;2024-01-25T15:30:09;7.90;99.90
51793;DHT22;37850;53.178;6.376;2024-01-25T15:32:36;7.40;99.90
51793;DHT22;37850;53.178;6.376;2024-01-25T15:35:05;7.40;99.90
51793;DHT22;37850;53.178;6.376;2024-01-25T15:37:30;7.40;99.90
51793;DHT22;37850;53.178;6.376;2024-01-25T15:39:56;7.80;99.90
51793;DHT22;37850;53.178;6.376;2024-01-25T15:42:22;7.40;99.90